createdAt,value
2023-08-14T00:01:24.313Z,96128.28
2023-08-14T00:11:26.848Z,96133.72
2023-08-14T00:21:30.794Z,96133.09
2023-08-14T00:31:33.530Z,96131.81
2023-08-14T00:41:38.161Z,96136.44
2023-08-14T00:51:40.698Z,96135.84
2023-08-14T01:01:44.505Z,96122.53
2023-08-14T01:11:55.872Z,96169.53
2023-08-14T01:22:04.717Z,96211.72
2023-08-14T01:32:08.712Z,96219.06
2023-08-14T01:42:15.853Z,96170.47
2023-08-14T01:52:20.235Z,96136.59
2023-08-14T02:02:22.923Z,96148.94
2023-08-14T02:12:26.857Z,96126.69
2023-08-14T02:22:29.332Z,96096.38
2023-08-14T02:32:33.335Z,96072.59
2023-08-14T02:42:35.897Z,96054.38
2023-08-14T02:52:39.929Z,96064.31
2023-08-14T03:02:42.842Z,96061.00
2023-08-14T03:12:46.831Z,96065.47
2023-08-14T03:22:49.336Z,96051.84
2023-08-14T03:32:53.306Z,96067.09
2023-08-14T03:42:55.973Z,96067.09
2023-08-14T03:52:59.843Z,96070.50
2023-08-14T04:03:03.245Z,96054.81
2023-08-14T04:13:07.410Z,96058.97
2023-08-14T04:23:09.902Z,96065.91
2023-08-14T04:33:13.852Z,96074.22
2023-08-14T04:43:16.451Z,96075.34
2023-08-14T04:53:20.244Z,96090.06
2023-08-14T05:03:22.802Z,96090.34
2023-08-14T05:13:26.723Z,96092.56
2023-08-14T05:23:29.243Z,96052.22
2023-08-14T05:33:33.036Z,96035.72
2023-08-14T05:43:35.580Z,96043.31
2023-08-14T05:53:39.441Z,96051.38
2023-08-14T06:03:44.852Z,96044.41
2023-08-14T06:13:49.108Z,96037.16
2023-08-14T06:23:51.819Z,96043.88
2023-08-14T06:33:55.736Z,96025.03
2023-08-14T06:43:58.649Z,96022.44
2023-08-14T06:54:02.549Z,96036.00
2023-08-14T07:04:05.318Z,96042.59
2023-08-14T07:14:09.234Z,96030.72
2023-08-14T07:24:13.632Z,96035.78
2023-08-14T07:34:17.483Z,96032.56
2023-08-14T07:44:19.964Z,96038.44
2023-08-14T07:54:23.829Z,96040.28
2023-08-14T08:04:26.857Z,96041.78
2023-08-14T08:14:30.995Z,96051.84
2023-08-14T08:24:33.555Z,96066.28
2023-08-14T08:34:37.710Z,96069.41
2023-08-14T08:44:43.046Z,96073.38
2023-08-14T08:54:47.387Z,96074.69
2023-08-14T09:04:49.881Z,96074.09
2023-08-14T09:15:05.106Z,96070.03
2023-08-14T09:25:08.707Z,96057.50
2023-08-14T09:35:12.622Z,96049.88
2023-08-14T09:45:15.571Z,96053.16
2023-08-14T09:55:19.635Z,96064.13
2023-08-14T10:05:22.676Z,96053.91
2023-08-14T10:15:28.161Z,96047.38
2023-08-14T10:25:31.039Z,96039.41
2023-08-14T10:35:45.265Z,96035.66
2023-08-14T10:45:47.786Z,96037.50
2023-08-14T10:55:51.769Z,96043.44
2023-08-14T11:05:54.369Z,96032.03
2023-08-14T11:15:59.128Z,96021.47
2023-08-14T11:26:01.682Z,96027.97
2023-08-14T11:36:11.704Z,96033.28
2023-08-14T11:46:14.636Z,96017.03
2023-08-14T11:56:19.119Z,96005.97
2023-08-14T12:06:21.777Z,96071.69
2023-08-14T12:16:28.440Z,96058.97
2023-08-14T12:26:37.533Z,96065.69
2023-08-14T12:36:41.355Z,96070.38
2023-08-14T12:46:43.942Z,96105.16
2023-08-14T12:56:47.900Z,96101.34
2023-08-14T13:06:50.771Z,96068.66
2023-08-14T13:16:54.655Z,96061.56
2023-08-14T13:27:01.644Z,96068.41
2023-08-14T13:37:12.279Z,96059.38
2023-08-14T13:47:16.481Z,96043.13
2023-08-14T13:57:22.276Z,96044.81
2023-08-14T14:07:27.301Z,96054.75
2023-08-14T14:17:33.304Z,96074.97
2023-08-14T14:27:35.875Z,96077.22
2023-08-14T14:37:39.704Z,96030.09
2023-08-14T14:47:42.269Z,96004.72
2023-08-14T14:57:46.144Z,96008.81
2023-08-14T15:07:50.365Z,95999.69
2023-08-14T15:17:54.252Z,95996.28
2023-08-14T15:27:56.890Z,95988.50
2023-08-14T15:38:00.969Z,95976.81
2023-08-14T15:48:03.580Z,95975.13
2023-08-14T15:58:07.490Z,95965.78
2023-08-14T16:08:09.991Z,95957.13
2023-08-14T16:18:14.002Z,95968.94
2023-08-14T16:28:16.521Z,95969.09
2023-08-14T16:38:20.394Z,95966.94
2023-08-14T16:48:22.890Z,95966.28
2023-08-14T16:58:26.744Z,95965.03
2023-08-14T17:08:29.336Z,95960.94
2023-08-14T17:18:33.172Z,95963.91
2023-08-14T17:28:35.699Z,95965.75
2023-08-14T17:38:39.886Z,95972.50
2023-08-14T17:48:42.458Z,95974.09
2023-08-14T17:58:46.752Z,95977.88
2023-08-14T18:08:49.432Z,95971.00
2023-08-14T18:18:58.131Z,95970.16
2023-08-14T18:29:07.007Z,95972.19
2023-08-14T18:39:10.794Z,95975.94
2023-08-14T18:49:13.314Z,95984.13
2023-08-14T18:59:20.022Z,95987.97
2023-08-14T19:09:22.497Z,95998.16
2023-08-14T19:19:26.377Z,96015.31
2023-08-14T19:29:28.862Z,96011.06
2023-08-14T19:39:32.900Z,96020.53
2023-08-14T19:49:35.535Z,96024.72
2023-08-14T19:59:40.109Z,96025.59
2023-08-14T20:09:42.604Z,96028.88
2023-08-14T20:19:46.428Z,96026.84
2023-08-14T20:29:48.893Z,96033.63
2023-08-14T20:39:53.120Z,96036.34
2023-08-14T20:49:55.644Z,96043.78
2023-08-14T20:59:59.603Z,96044.66
2023-08-14T21:10:02.364Z,96038.09
2023-08-14T21:20:06.824Z,96033.53
2023-08-14T21:40:13.442Z,96041.25
2023-08-14T21:50:16.062Z,96031.94
2023-08-14T22:00:19.979Z,96023.59
2023-08-14T22:10:22.515Z,96023.97
2023-08-14T22:20:26.455Z,96037.28
2023-08-14T22:30:29.174Z,96048.69
2023-08-14T22:40:33.246Z,96051.44
2023-08-14T22:50:35.925Z,96044.69
2023-08-14T23:00:40.261Z,96036.50
2023-08-14T23:10:43.319Z,96046.16
2023-08-14T23:20:47.181Z,96041.19
2023-08-14T23:30:50.775Z,96052.09
2023-08-14T23:40:54.659Z,96041.50
2023-08-14T23:50:57.156Z,96033.94
